createdAt,value
2019-02-23T00:01:49.079Z,0.93
2019-02-23T00:04:16.997Z,1.00
2019-02-23T00:06:45.052Z,1.00
2019-02-23T00:09:13.027Z,1.10
2019-02-23T00:11:41.085Z,1.10
2019-02-23T00:14:09.155Z,1.20
2019-02-23T00:16:37.278Z,0.93
2019-02-23T00:19:05.285Z,1.00
2019-02-23T00:21:33.332Z,0.90
2019-02-23T00:24:01.976Z,1.20
2019-02-23T00:26:29.992Z,0.80
2019-02-23T00:28:58.100Z,1.00
2019-02-23T00:31:26.062Z,1.07
2019-02-23T00:33:54.100Z,1.10
2019-02-23T00:36:22.447Z,0.93
2019-02-23T00:38:50.478Z,1.10
2019-02-23T00:41:19.204Z,1.00
2019-02-23T00:43:47.239Z,1.10
2019-02-23T00:46:15.242Z,1.10
2019-02-23T00:48:43.252Z,0.90
2019-02-23T00:51:11.519Z,1.20
2019-02-23T00:53:39.464Z,1.17
2019-02-23T00:56:07.436Z,1.00
2019-02-23T00:58:35.479Z,1.10
2019-02-23T01:01:03.499Z,1.03
2019-02-23T01:03:31.545Z,1.10
2019-02-23T01:05:59.584Z,1.20
2019-02-23T01:08:30.548Z,1.20
2019-02-23T01:10:58.624Z,1.20
2019-02-23T01:13:26.595Z,1.00
2019-02-23T01:15:54.623Z,1.20
2019-02-23T01:18:22.792Z,1.10
2019-02-23T01:20:50.864Z,1.10
2019-02-23T01:23:18.865Z,1.33
2019-02-23T01:25:46.904Z,1.20
2019-02-23T01:28:14.912Z,1.30
2019-02-23T01:30:42.987Z,1.00
2019-02-23T01:33:11.023Z,1.20
2019-02-23T01:35:39.030Z,1.27
2019-02-23T01:38:06.961Z,1.00
2019-02-23T01:40:34.974Z,1.10
2019-02-23T01:43:02.995Z,1.30
2019-02-23T01:45:41.894Z,1.30
2019-02-23T01:48:00.676Z,1.20
2019-02-23T01:50:28.755Z,1.10
2019-02-23T01:52:56.716Z,1.33
2019-02-23T01:55:24.676Z,1.40
2019-02-23T01:57:52.701Z,1.50
2019-02-23T02:00:22.014Z,1.10
2019-02-23T02:02:49.988Z,1.20
2019-02-23T02:05:21.290Z,1.30
2019-02-23T02:07:49.380Z,1.27
2019-02-23T02:10:17.781Z,1.30
2019-02-23T02:12:45.717Z,1.13
2019-02-23T02:15:14.443Z,1.30
2019-02-23T02:17:42.510Z,1.27
2019-02-23T02:20:11.633Z,1.40
2019-02-23T02:22:39.777Z,1.57
2019-02-23T02:25:07.900Z,1.50
2019-02-23T02:27:35.854Z,1.30
2019-02-23T02:30:03.992Z,1.40
2019-02-23T02:32:32.017Z,1.70
2019-02-23T02:34:59.972Z,1.40
2019-02-23T02:37:28.041Z,1.60
2019-02-23T02:39:56.079Z,1.50
2019-02-23T02:42:24.053Z,1.40
2019-02-23T02:44:52.044Z,1.60
2019-02-23T02:47:20.112Z,1.60
2019-02-23T02:49:48.143Z,1.40
2019-02-23T02:52:16.139Z,1.50
2019-02-23T02:54:44.107Z,1.40
2019-02-23T02:57:12.059Z,1.60
2019-02-23T02:59:40.048Z,1.87
2019-02-23T03:02:08.002Z,1.83
2019-02-23T03:04:36.035Z,1.60
2019-02-23T03:07:04.000Z,1.40
2019-02-23T03:09:32.009Z,1.50
2019-02-23T03:12:01.017Z,2.00
2019-02-23T03:14:28.966Z,1.93
2019-02-23T03:16:57.043Z,2.03
2019-02-23T03:19:24.986Z,1.63
2019-02-23T03:21:52.939Z,2.07
2019-02-23T03:24:20.937Z,2.00
2019-02-23T03:26:48.878Z,1.60
2019-02-23T03:29:16.883Z,2.03
2019-02-23T03:31:44.826Z,2.10
2019-02-23T03:34:12.890Z,1.80
2019-02-23T03:36:40.899Z,1.93
2019-02-23T03:39:08.924Z,1.77
2019-02-23T03:41:36.919Z,2.10
2019-02-23T03:44:05.314Z,1.80
2019-02-23T03:46:33.393Z,2.13
2019-02-23T03:49:01.423Z,2.13
2019-02-23T03:51:29.424Z,2.10
2019-02-23T03:53:57.647Z,2.40
2019-02-23T03:56:25.703Z,2.27
2019-02-23T03:58:53.697Z,2.47
2019-02-23T04:01:21.727Z,2.67
2019-02-23T04:03:49.691Z,2.30
2019-02-23T04:06:17.636Z,2.67
2019-02-23T04:08:45.603Z,2.60
2019-02-23T04:11:15.076Z,2.60
2019-02-23T04:13:43.112Z,2.77
2019-02-23T04:16:11.500Z,2.63
2019-02-23T04:18:39.848Z,2.97
2019-02-23T04:21:08.187Z,3.00
2019-02-23T04:23:36.184Z,2.77
2019-02-23T04:26:04.135Z,2.90
2019-02-23T04:28:32.155Z,2.67
2019-02-23T04:31:00.506Z,3.17
2019-02-23T04:33:28.516Z,2.90
2019-02-23T04:35:56.993Z,3.07
2019-02-23T04:38:24.904Z,3.20
2019-02-23T04:40:52.896Z,3.17
2019-02-23T04:43:20.952Z,3.47
2019-02-23T04:45:49.042Z,3.00
2019-02-23T04:48:17.040Z,3.17
2019-02-23T04:50:45.048Z,3.20
2019-02-23T04:53:13.007Z,3.30
2019-02-23T04:55:41.984Z,3.27
2019-02-23T04:58:10.032Z,2.90
2019-02-23T05:00:40.078Z,3.27
2019-02-23T05:03:08.086Z,3.20
2019-02-23T05:05:36.797Z,3.20
2019-02-23T05:08:04.697Z,2.90
2019-02-23T05:10:32.701Z,3.60
2019-02-23T05:13:00.703Z,3.87
2019-02-23T05:15:28.646Z,3.67
2019-02-23T05:17:56.649Z,3.33
2019-02-23T05:20:24.661Z,3.53
2019-02-23T05:22:52.653Z,4.37
2019-02-23T05:25:20.678Z,3.63
2019-02-23T05:27:48.688Z,3.60
2019-02-23T05:30:16.704Z,3.90
2019-02-23T05:32:45.479Z,4.27
2019-02-23T05:35:13.625Z,3.80
2019-02-23T05:37:41.579Z,3.70
2019-02-23T05:40:12.691Z,3.80
2019-02-23T05:42:40.734Z,3.73
2019-02-23T05:45:08.850Z,4.00
2019-02-23T05:47:36.895Z,3.97
2019-02-23T05:50:04.859Z,4.07
2019-02-23T05:52:32.841Z,4.00
2019-02-23T05:55:00.789Z,3.90
2019-02-23T05:57:29.140Z,4.17
2019-02-23T05:59:57.143Z,4.13
2019-02-23T06:02:26.171Z,3.80
2019-02-23T06:04:54.214Z,4.40
2019-02-23T06:07:22.209Z,4.30
2019-02-23T06:09:50.295Z,4.50
2019-02-23T06:12:18.311Z,3.93
2019-02-23T06:14:46.330Z,4.40
2019-02-23T06:17:14.388Z,3.83
2019-02-23T06:19:42.334Z,4.33
2019-02-23T06:22:10.364Z,3.90
2019-02-23T06:24:38.310Z,3.40
2019-02-23T06:27:06.350Z,4.10
2019-02-23T06:29:34.366Z,4.30
2019-02-23T06:32:02.472Z,4.00
2019-02-23T06:34:30.506Z,4.20
2019-02-23T06:36:58.559Z,4.20
2019-02-23T06:39:26.581Z,3.60
2019-02-23T06:41:54.660Z,4.20
2019-02-23T06:44:22.650Z,3.83
2019-02-23T06:46:50.809Z,4.00
2019-02-23T06:49:18.812Z,3.97
2019-02-23T06:51:46.829Z,4.17
2019-02-23T06:54:14.792Z,4.50
2019-02-23T06:56:42.747Z,4.20
2019-02-23T06:59:10.775Z,4.27
2019-02-23T07:01:38.885Z,4.37
2019-02-23T07:04:06.975Z,4.30
2019-02-23T07:06:35.018Z,4.03
2019-02-23T07:09:03.408Z,3.90
2019-02-23T07:11:31.464Z,3.67
2019-02-23T07:13:59.779Z,4.43
2019-02-23T07:16:27.789Z,3.50
2019-02-23T07:18:55.812Z,3.97
2019-02-23T07:21:23.810Z,3.80
2019-02-23T07:23:51.763Z,3.63
2019-02-23T07:26:19.806Z,3.60
2019-02-23T07:28:47.737Z,3.10
2019-02-23T07:31:15.768Z,3.73
2019-02-23T07:33:43.808Z,3.57
2019-02-23T07:36:11.807Z,3.57
2019-02-23T07:38:39.805Z,3.70
2019-02-23T07:41:10.149Z,3.10
2019-02-23T07:43:38.064Z,3.73
2019-02-23T07:46:06.099Z,3.50
2019-02-23T07:48:34.411Z,3.27
2019-02-23T07:51:02.414Z,3.10
2019-02-23T07:53:30.646Z,3.13
2019-02-23T07:55:58.596Z,3.20
2019-02-23T07:58:26.539Z,3.07
2019-02-23T08:00:54.507Z,2.97
2019-02-23T08:03:26.301Z,3.00
2019-02-23T08:05:54.296Z,3.07
2019-02-23T08:08:22.230Z,2.90
2019-02-23T08:10:50.274Z,2.97
2019-02-23T08:13:18.273Z,2.80
2019-02-23T08:15:46.271Z,2.77
2019-02-23T08:18:14.223Z,2.87
2019-02-23T08:20:42.141Z,2.63
2019-02-23T08:23:10.058Z,2.80
2019-02-23T08:25:38.029Z,2.80
2019-02-23T08:28:06.063Z,2.97
2019-02-23T08:30:34.111Z,2.70
2019-02-23T08:33:02.113Z,2.90
2019-02-23T08:35:30.147Z,2.90
2019-02-23T08:37:58.188Z,3.00
2019-02-23T08:40:26.194Z,2.80
2019-02-23T08:42:54.302Z,2.97
2019-02-23T08:45:22.307Z,2.87
2019-02-23T08:47:50.349Z,2.80
2019-02-23T08:50:18.369Z,2.50
2019-02-23T08:52:49.544Z,2.60
2019-02-23T08:55:18.184Z,2.43
2019-02-23T08:57:46.203Z,2.60
2019-02-23T09:00:14.830Z,2.53
2019-02-23T09:02:42.913Z,2.40
2019-02-23T09:05:11.075Z,2.50
2019-02-23T09:07:39.128Z,2.60
2019-02-23T09:10:07.892Z,2.40
2019-02-23T09:12:36.204Z,2.50
2019-02-23T09:15:04.452Z,2.20
2019-02-23T09:17:32.492Z,2.37
2019-02-23T09:20:00.583Z,2.27
2019-02-23T09:22:28.591Z,2.40
2019-02-23T09:24:56.668Z,2.30
2019-02-23T09:27:24.723Z,2.33
2019-02-23T09:29:52.703Z,2.10
2019-02-23T09:32:20.683Z,2.00
2019-02-23T09:34:48.747Z,2.00
2019-02-23T09:37:16.814Z,2.17
2019-02-23T09:39:44.860Z,1.90
2019-02-23T09:42:12.840Z,2.00
2019-02-23T09:44:40.823Z,1.90
2019-02-23T09:47:08.905Z,1.90
2019-02-23T09:49:37.046Z,1.90
2019-02-23T09:52:05.112Z,1.80
2019-02-23T09:54:33.252Z,1.90
2019-02-23T09:57:01.326Z,1.77
2019-02-23T09:59:29.338Z,1.77
2019-02-23T10:01:57.336Z,1.67
2019-02-23T10:04:25.336Z,1.80
2019-02-23T10:06:53.330Z,1.90
2019-02-23T10:09:21.373Z,1.77
2019-02-23T10:11:49.317Z,1.87
2019-02-23T10:14:19.449Z,1.67
2019-02-23T10:16:47.522Z,1.70
2019-02-23T10:19:15.531Z,1.83
2019-02-23T10:21:43.573Z,1.80
2019-02-23T10:24:11.546Z,1.80
2019-02-23T10:26:39.528Z,1.60
2019-02-23T10:29:07.507Z,1.80
2019-02-23T10:31:35.420Z,2.07
2019-02-23T10:34:03.400Z,2.20
2019-02-23T10:36:31.871Z,1.80
2019-02-23T10:38:59.807Z,1.60
2019-02-23T10:41:27.905Z,2.00
2019-02-23T10:43:56.042Z,1.70
2019-02-23T10:46:24.152Z,1.80
2019-02-23T10:48:52.156Z,1.90
2019-02-23T10:51:20.089Z,2.30
2019-02-23T10:53:47.995Z,1.90
2019-02-23T10:56:16.035Z,1.83
2019-02-23T10:58:44.088Z,1.70
2019-02-23T11:01:12.124Z,1.70
2019-02-23T11:03:40.261Z,2.10
2019-02-23T11:06:08.183Z,1.80
2019-02-23T11:08:36.104Z,1.70
2019-02-23T11:11:04.248Z,1.63
2019-02-23T11:13:32.331Z,1.90
2019-02-23T11:16:00.328Z,1.80
2019-02-23T11:18:28.400Z,2.33
2019-02-23T11:20:56.468Z,1.87
2019-02-23T11:23:24.471Z,2.03
2019-02-23T11:25:52.505Z,1.77
2019-02-23T11:28:20.419Z,1.97
2019-02-23T11:30:48.356Z,1.80
2019-02-23T11:33:16.779Z,1.90
2019-02-23T11:35:44.800Z,1.70
2019-02-23T11:38:12.754Z,1.97
2019-02-23T11:40:40.826Z,2.17
2019-02-23T11:43:08.860Z,2.50
2019-02-23T11:45:36.889Z,2.13
2019-02-23T11:48:04.891Z,1.90
2019-02-23T11:50:32.908Z,1.97
2019-02-23T11:53:00.913Z,1.70
2019-02-23T11:55:29.121Z,2.10
2019-02-23T11:57:57.051Z,2.20
2019-02-23T12:00:25.120Z,1.80
2019-02-23T12:02:53.172Z,2.00
2019-02-23T12:05:21.229Z,1.97
2019-02-23T12:07:49.199Z,2.07
2019-02-23T12:10:17.215Z,2.00
2019-02-23T12:12:45.443Z,2.00
2019-02-23T12:15:13.402Z,1.80
2019-02-23T12:17:41.492Z,2.00
2019-02-23T12:20:09.663Z,1.90
2019-02-23T12:22:37.713Z,2.03
2019-02-23T12:25:05.923Z,1.90
2019-02-23T12:27:34.008Z,2.20
2019-02-23T12:30:02.071Z,2.23
2019-02-23T12:32:30.251Z,2.30
2019-02-23T12:34:58.257Z,2.20
2019-02-23T12:37:26.318Z,2.13
2019-02-23T12:39:54.407Z,2.10
2019-02-23T12:42:22.407Z,2.20
2019-02-23T12:44:50.473Z,1.90
2019-02-23T12:47:18.553Z,2.47
2019-02-23T12:49:46.582Z,2.40
2019-02-23T12:52:14.595Z,2.33
2019-02-23T12:54:42.568Z,2.13
2019-02-23T12:57:10.633Z,2.10
2019-02-23T12:59:38.708Z,2.07
2019-02-23T13:02:06.666Z,2.10
2019-02-23T13:04:41.921Z,2.47
2019-02-23T13:07:09.929Z,2.00
2019-02-23T13:09:43.315Z,2.00
2019-02-23T13:12:33.391Z,1.97
2019-02-23T13:15:20.446Z,2.40
2019-02-23T13:18:06.547Z,1.97
2019-02-23T13:21:00.676Z,2.10
2019-02-23T13:23:32.816Z,1.70
2019-02-23T13:26:09.053Z,2.37
2019-02-23T13:28:40.402Z,2.03
2019-02-23T13:31:36.531Z,2.20
2019-02-23T13:34:23.650Z,2.00
2019-02-23T13:37:12.915Z,2.30
2019-02-23T13:39:58.943Z,2.30
2019-02-23T13:42:48.995Z,2.40
2019-02-23T13:45:27.639Z,2.17
2019-02-23T13:48:08.391Z,2.13
2019-02-23T13:50:47.564Z,1.93
2019-02-23T13:53:25.749Z,2.50
2019-02-23T13:56:03.760Z,2.00
2019-02-23T13:58:50.827Z,2.13
2019-02-23T14:01:41.005Z,2.30
2019-02-23T14:04:40.389Z,2.07
2019-02-23T14:07:45.644Z,1.93
2019-02-23T14:10:30.356Z,2.50
2019-02-23T14:13:17.454Z,2.57
2019-02-23T14:16:04.575Z,2.10
2019-02-23T14:18:39.896Z,2.37
2019-02-23T14:21:15.466Z,1.90
2019-02-23T14:23:58.261Z,2.37
2019-02-23T14:26:45.384Z,2.17
2019-02-23T14:29:32.545Z,2.40
2019-02-23T14:32:30.833Z,2.30
2019-02-23T14:35:16.482Z,2.20
2019-02-23T14:38:03.701Z,2.10
2019-02-23T14:40:47.749Z,1.90
2019-02-23T14:43:22.985Z,2.13
2019-02-23T14:46:14.819Z,1.80
2019-02-23T14:48:46.060Z,1.90
2019-02-23T14:51:45.388Z,2.30
2019-02-23T14:54:39.106Z,2.17
2019-02-23T14:57:18.777Z,2.50
2019-02-23T15:00:08.929Z,2.80
2019-02-23T15:02:40.660Z,2.70
2019-02-23T15:05:30.840Z,3.00
2019-02-23T15:08:23.940Z,3.03
2019-02-23T15:11:06.629Z,3.40
2019-02-23T15:13:58.090Z,3.27
2019-02-23T15:17:03.503Z,3.10
2019-02-23T15:19:39.556Z,3.43
2019-02-23T15:22:25.421Z,3.10
2019-02-23T15:25:00.401Z,3.43
2019-02-23T15:27:41.848Z,3.77
2019-02-23T15:30:38.024Z,3.43
2019-02-23T15:33:16.941Z,4.10
2019-02-23T15:36:02.769Z,3.43
2019-02-23T15:38:55.956Z,3.70
2019-02-23T15:41:34.765Z,3.70
2019-02-23T15:44:10.641Z,3.80
2019-02-23T15:47:10.397Z,4.37
2019-02-23T15:49:38.548Z,4.07
2019-02-23T15:52:07.136Z,4.00
2019-02-23T15:54:35.308Z,3.97
2019-02-23T15:57:03.399Z,4.00
2019-02-23T15:59:31.468Z,4.10
2019-02-23T16:01:59.544Z,3.93
2019-02-23T16:04:27.591Z,3.73
2019-02-23T16:06:55.683Z,4.10
2019-02-23T16:09:23.815Z,3.87
2019-02-23T16:11:51.821Z,4.03
2019-02-23T16:14:19.905Z,4.00
2019-02-23T16:16:47.984Z,3.80
2019-02-23T16:19:15.993Z,4.13
2019-02-23T16:21:43.956Z,4.43
2019-02-23T16:24:11.921Z,5.03
2019-02-23T16:26:39.860Z,4.20
2019-02-23T16:29:07.861Z,4.60
2019-02-23T16:31:35.929Z,4.20
2019-02-23T16:34:07.099Z,4.53
2019-02-23T16:36:33.680Z,4.37
2019-02-23T16:39:01.660Z,4.40
2019-02-23T16:41:29.753Z,4.10
2019-02-23T16:43:57.823Z,4.00
2019-02-23T16:46:25.915Z,4.10
2019-02-23T16:48:54.019Z,4.10
2019-02-23T16:51:22.100Z,4.40
2019-02-23T16:53:50.087Z,4.20
2019-02-23T16:56:18.071Z,4.23
2019-02-23T16:58:46.102Z,4.73
2019-02-23T17:01:14.119Z,4.27
2019-02-23T17:03:42.173Z,4.43
2019-02-23T17:06:10.635Z,4.87
2019-02-23T17:08:38.709Z,3.97
2019-02-23T17:11:06.782Z,3.70
2019-02-23T17:13:34.891Z,4.27
2019-02-23T17:16:02.895Z,4.27
2019-02-23T17:18:30.976Z,4.37
2019-02-23T17:20:59.085Z,4.27
2019-02-23T17:23:27.067Z,4.60
2019-02-23T17:26:03.759Z,4.30
2019-02-23T17:28:24.819Z,4.27
2019-02-23T17:30:52.822Z,4.87
2019-02-23T17:33:20.873Z,4.90
2019-02-23T17:35:48.936Z,4.50
2019-02-23T17:38:16.951Z,4.80
2019-02-23T17:40:45.011Z,4.40
2019-02-23T17:43:15.823Z,4.50
2019-02-23T17:45:43.880Z,5.10
2019-02-23T17:48:11.907Z,4.57
2019-02-23T17:50:39.954Z,4.97
2019-02-23T17:53:08.016Z,4.40
2019-02-23T17:55:36.049Z,4.97
2019-02-23T17:58:04.050Z,4.60
2019-02-23T18:00:32.081Z,4.80
2019-02-23T18:03:00.191Z,4.80
2019-02-23T18:05:29.355Z,4.77
2019-02-23T18:07:57.367Z,5.20
2019-02-23T18:10:25.419Z,5.00
2019-02-23T18:12:53.439Z,4.97
2019-02-23T18:15:21.492Z,5.00
2019-02-23T18:17:49.483Z,4.87
2019-02-23T18:20:17.557Z,4.80
2019-02-23T18:22:45.596Z,4.97
2019-02-23T18:25:13.713Z,4.90
2019-02-23T18:27:41.816Z,4.53
2019-02-23T18:30:12.410Z,5.20
2019-02-23T18:32:40.347Z,4.83
2019-02-23T18:35:08.340Z,5.33
2019-02-23T18:37:36.404Z,5.30
2019-02-23T18:40:04.496Z,5.37
2019-02-23T18:42:32.497Z,5.90
2019-02-23T18:45:01.038Z,5.63
2019-02-23T18:47:29.128Z,5.30
2019-02-23T18:49:57.091Z,5.37
2019-02-23T18:52:25.054Z,5.67
2019-02-23T18:54:53.163Z,5.50
2019-02-23T18:57:21.165Z,5.27
2019-02-23T18:59:49.223Z,5.60
2019-02-23T19:02:17.236Z,5.30
2019-02-23T19:04:45.311Z,5.70
2019-02-23T19:07:13.363Z,5.67
2019-02-23T19:09:41.415Z,5.70
2019-02-23T19:12:09.379Z,5.97
2019-02-23T19:14:37.389Z,5.70
2019-02-23T19:17:05.424Z,5.63
2019-02-23T19:19:33.430Z,6.40
2019-02-23T19:22:01.571Z,6.17
2019-02-23T19:24:29.634Z,6.40
2019-02-23T19:26:58.076Z,6.03
2019-02-23T19:29:26.128Z,5.93
2019-02-23T19:31:54.229Z,6.20
2019-02-23T19:34:22.256Z,6.30
2019-02-23T19:36:50.314Z,5.87
2019-02-23T19:39:18.395Z,6.00
2019-02-23T19:41:46.450Z,6.07
2019-02-23T19:44:14.541Z,5.57
2019-02-23T19:46:47.768Z,5.87
2019-02-23T19:49:15.749Z,6.30
2019-02-23T19:51:43.809Z,6.23
2019-02-23T19:54:13.690Z,5.80
2019-02-23T19:56:46.812Z,6.00
2019-02-23T19:59:11.314Z,6.30
2019-02-23T20:01:39.345Z,5.90
2019-02-23T20:04:07.383Z,6.20
2019-02-23T20:06:35.347Z,6.20
2019-02-23T20:09:03.539Z,5.20
2019-02-23T20:11:31.579Z,5.13
2019-02-23T20:13:59.664Z,5.50
2019-02-23T20:16:27.776Z,5.50
2019-02-23T20:18:55.956Z,6.10
2019-02-23T20:21:24.239Z,5.67
2019-02-23T20:23:52.295Z,5.30
2019-02-23T20:26:20.397Z,5.30
2019-02-23T20:28:48.433Z,5.70
2019-02-23T20:31:16.404Z,6.07
2019-02-23T20:33:44.406Z,5.53
2019-02-23T20:36:12.521Z,5.30
2019-02-23T20:38:40.578Z,5.73
2019-02-23T20:41:08.799Z,6.13
2019-02-23T20:43:36.924Z,5.53
2019-02-23T20:46:04.965Z,5.93
2019-02-23T20:48:33.037Z,6.50
2019-02-23T20:51:01.145Z,6.10
2019-02-23T20:53:29.263Z,5.53
2019-02-23T20:55:57.699Z,6.00
2019-02-23T20:58:27.411Z,5.80
2019-02-23T21:00:55.474Z,5.87
2019-02-23T21:03:23.518Z,5.83
2019-02-23T21:05:51.555Z,5.73
2019-02-23T21:08:19.588Z,6.37
2019-02-23T21:10:47.629Z,6.30
2019-02-23T21:13:15.757Z,6.10
2019-02-23T21:15:43.808Z,5.63
2019-02-23T21:18:11.999Z,5.87
2019-02-23T21:20:40.054Z,6.07
2019-02-23T21:23:07.994Z,6.17
2019-02-23T21:25:36.011Z,5.60
2019-02-23T21:28:04.253Z,6.00
2019-02-23T21:30:34.581Z,5.60
2019-02-23T21:33:03.642Z,6.00
2019-02-23T21:35:31.715Z,5.83
2019-02-23T21:38:00.025Z,6.20
2019-02-23T21:40:28.095Z,5.60
2019-02-23T21:42:56.192Z,5.80
2019-02-23T21:45:24.260Z,5.73
2019-02-23T21:47:52.348Z,5.70
2019-02-23T21:50:20.404Z,6.17
2019-02-23T21:52:48.488Z,5.87
2019-02-23T21:55:17.995Z,5.90
2019-02-23T21:57:48.248Z,5.70
2019-02-23T22:00:17.930Z,5.83
2019-02-23T22:02:46.857Z,5.83
2019-02-23T22:05:15.638Z,5.90
2019-02-23T22:07:43.620Z,6.20
2019-02-23T22:10:11.587Z,6.63
2019-02-23T22:12:39.618Z,6.50
2019-02-23T22:15:09.075Z,6.80
2019-02-23T22:17:38.928Z,5.80
2019-02-23T22:20:07.116Z,6.33
2019-02-23T22:22:46.092Z,6.33
2019-02-23T22:25:14.097Z,6.13
2019-02-23T22:27:42.180Z,6.10
2019-02-23T22:30:10.200Z,6.80
2019-02-23T22:32:38.328Z,6.60
2019-02-23T22:35:06.430Z,6.37
2019-02-23T22:37:34.420Z,6.80
2019-02-23T22:40:02.573Z,6.77
2019-02-23T22:42:30.647Z,6.43
2019-02-23T22:44:58.707Z,7.13
2019-02-23T22:47:26.724Z,6.37
2019-02-23T22:49:54.907Z,6.50
2019-02-23T22:52:23.013Z,6.63
2019-02-23T22:54:51.015Z,6.63
2019-02-23T22:57:19.059Z,6.73
2019-02-23T22:59:47.119Z,6.40
2019-02-23T23:02:17.932Z,7.20
2019-02-23T23:04:45.867Z,6.43
2019-02-23T23:07:14.178Z,6.53
2019-02-23T23:09:42.192Z,7.07
2019-02-23T23:12:10.148Z,6.23
2019-02-23T23:14:38.099Z,7.20
2019-02-23T23:17:06.088Z,7.50
2019-02-23T23:19:34.084Z,6.90
2019-02-23T23:22:02.043Z,6.30
2019-02-23T23:24:30.312Z,6.73
2019-02-23T23:26:58.257Z,6.50
2019-02-23T23:29:26.246Z,7.07
2019-02-23T23:31:54.215Z,6.77
2019-02-23T23:34:24.290Z,7.30
2019-02-23T23:36:52.364Z,7.47
2019-02-23T23:39:20.410Z,7.40
2019-02-23T23:41:48.547Z,7.30
2019-02-23T23:44:17.870Z,7.10
2019-02-23T23:46:45.915Z,6.93
2019-02-23T23:49:13.849Z,7.33
2019-02-23T23:51:41.931Z,6.90
2019-02-23T23:54:10.003Z,7.30
2019-02-23T23:56:37.980Z,7.10
2019-02-23T23:59:09.100Z,7.43
